createdAt,value
2017-12-10T00:00:48.285Z,2.00
2017-12-10T00:03:27.451Z,2.10
2017-12-10T00:06:02.974Z,2.10
2017-12-10T00:08:37.805Z,2.10
2017-12-10T00:11:11.433Z,2.10
2017-12-10T00:13:48.785Z,2.10
2017-12-10T00:16:24.150Z,2.20
2017-12-10T00:18:56.765Z,2.10
2017-12-10T00:21:35.233Z,2.10
2017-12-10T00:24:13.725Z,2.20
2017-12-10T00:26:55.724Z,2.20
2017-12-10T00:29:38.642Z,2.20
2017-12-10T00:32:16.215Z,2.20
2017-12-10T00:34:56.913Z,2.20
2017-12-10T00:37:41.274Z,2.20
2017-12-10T00:40:20.797Z,2.20
2017-12-10T00:42:59.971Z,2.20
2017-12-10T00:45:35.745Z,2.10
2017-12-10T00:48:16.802Z,2.10
2017-12-10T00:50:55.604Z,2.10
2017-12-10T00:53:37.399Z,2.10
2017-12-10T00:56:06.941Z,2.10
2017-12-10T00:58:48.109Z,2.20
2017-12-10T01:01:30.116Z,2.20
2017-12-10T01:04:11.056Z,2.20
2017-12-10T01:06:48.600Z,2.20
2017-12-10T01:09:28.759Z,2.20
2017-12-10T01:12:08.016Z,2.20
2017-12-10T01:14:49.827Z,2.20
2017-12-10T01:17:29.838Z,2.20
2017-12-10T01:20:08.922Z,2.20
2017-12-10T01:22:41.934Z,2.20
2017-12-10T01:25:19.460Z,2.20
2017-12-10T01:28:01.084Z,2.10
2017-12-10T01:30:45.749Z,2.10
2017-12-10T01:33:26.332Z,2.10
2017-12-10T01:36:10.132Z,2.10
2017-12-10T01:38:54.174Z,2.10
2017-12-10T01:41:35.507Z,2.10
2017-12-10T01:44:13.518Z,2.10
2017-12-10T01:46:52.468Z,2.10
2017-12-10T01:49:31.603Z,2.10
2017-12-10T01:52:04.984Z,2.10
2017-12-10T01:54:44.865Z,2.10
2017-12-10T01:57:24.160Z,2.10
2017-12-10T02:00:01.282Z,2.10
2017-12-10T02:02:39.439Z,2.10
2017-12-10T02:05:17.263Z,2.10
2017-12-10T02:07:56.619Z,2.10
2017-12-10T02:10:35.308Z,2.00
2017-12-10T02:13:16.378Z,2.10
2017-12-10T02:15:51.096Z,2.00
2017-12-10T02:18:26.289Z,2.00
2017-12-10T02:21:02.985Z,1.90
2017-12-10T02:23:37.151Z,1.80
2017-12-10T02:26:16.028Z,1.70
2017-12-10T02:28:55.010Z,1.70
2017-12-10T02:31:34.711Z,1.50
2017-12-10T02:34:09.382Z,1.60
2017-12-10T02:36:46.271Z,1.60
2017-12-10T02:39:28.890Z,1.60
2017-12-10T02:42:10.189Z,1.60
2017-12-10T02:44:51.233Z,1.60
2017-12-10T02:47:31.386Z,1.70
2017-12-10T02:50:09.221Z,1.70
2017-12-10T02:52:48.428Z,1.70
2017-12-10T02:55:25.124Z,1.70
2017-12-10T02:58:02.822Z,1.70
2017-12-10T03:00:43.800Z,1.80
2017-12-10T03:03:23.224Z,1.80
2017-12-10T03:06:01.305Z,1.70
2017-12-10T03:08:39.515Z,1.70
2017-12-10T03:11:20.071Z,1.70
2017-12-10T03:13:58.123Z,1.70
2017-12-10T03:16:37.225Z,1.70
2017-12-10T03:19:21.114Z,1.70
2017-12-10T03:22:02.131Z,1.70
2017-12-10T03:24:41.800Z,1.80
2017-12-10T03:27:16.303Z,1.80
2017-12-10T03:29:53.608Z,1.80
2017-12-10T03:32:31.222Z,1.90
2017-12-10T03:35:09.614Z,1.90
2017-12-10T03:37:48.690Z,1.90
2017-12-10T03:40:27.073Z,2.00
2017-12-10T03:43:07.968Z,1.90
2017-12-10T03:45:46.969Z,1.90
2017-12-10T03:48:25.353Z,1.90
2017-12-10T03:51:05.449Z,1.90
2017-12-10T03:53:48.594Z,1.90
2017-12-10T03:56:31.388Z,1.80
2017-12-10T03:59:11.901Z,1.80
2017-12-10T04:01:51.549Z,1.70
2017-12-10T04:04:29.806Z,1.70
2017-12-10T04:07:07.390Z,1.70
2017-12-10T04:09:46.665Z,1.80
2017-12-10T04:12:26.049Z,1.80
2017-12-10T04:15:04.498Z,1.70
2017-12-10T04:17:43.651Z,1.80
2017-12-10T04:20:23.345Z,1.90
2017-12-10T04:23:00.359Z,1.80
2017-12-10T04:25:40.570Z,1.90
2017-12-10T04:28:19.259Z,1.90
2017-12-10T04:30:59.164Z,1.90
2017-12-10T04:33:36.748Z,1.90
2017-12-10T04:36:14.266Z,1.90
2017-12-10T04:38:51.905Z,2.00
2017-12-10T04:41:30.479Z,2.00
2017-12-10T04:44:09.778Z,2.00
2017-12-10T04:46:47.455Z,2.00
2017-12-10T04:49:24.928Z,1.90
2017-12-10T04:52:04.045Z,1.90
2017-12-10T04:54:43.017Z,2.00
2017-12-10T04:57:19.976Z,2.00
2017-12-10T05:00:00.142Z,1.90
2017-12-10T05:02:38.062Z,1.90
2017-12-10T05:05:16.218Z,1.90
2017-12-10T05:07:50.738Z,2.00
2017-12-10T05:10:25.330Z,2.00
2017-12-10T05:13:04.639Z,1.90
2017-12-10T05:15:46.950Z,1.90
2017-12-10T05:18:26.562Z,1.90
2017-12-10T05:21:03.592Z,1.90
2017-12-10T05:23:41.294Z,1.90
2017-12-10T05:26:19.777Z,1.90
2017-12-10T05:28:59.867Z,1.80
2017-12-10T05:31:39.095Z,1.70
2017-12-10T05:34:17.491Z,1.70
2017-12-10T05:36:54.926Z,1.80
2017-12-10T05:39:34.484Z,1.80
2017-12-10T05:42:13.385Z,1.80
2017-12-10T05:44:53.644Z,1.80
2017-12-10T05:47:28.405Z,1.80
2017-12-10T05:50:08.126Z,1.80
2017-12-10T05:52:45.623Z,1.80
2017-12-10T05:55:24.104Z,1.80
2017-12-10T05:57:57.281Z,1.80
2017-12-10T06:00:34.856Z,1.80
2017-12-10T06:03:18.952Z,1.80
2017-12-10T06:05:58.368Z,1.70
2017-12-10T06:08:32.388Z,1.70
2017-12-10T06:11:11.677Z,1.60
2017-12-10T06:13:51.115Z,1.60
2017-12-10T06:16:34.496Z,1.60
2017-12-10T06:19:14.253Z,1.60
2017-12-10T06:21:54.215Z,1.60
2017-12-10T06:24:32.882Z,1.50
2017-12-10T06:27:10.919Z,1.60
2017-12-10T06:29:50.309Z,1.50
2017-12-10T06:32:28.309Z,1.50
2017-12-10T06:35:05.966Z,1.60
2017-12-10T06:37:48.163Z,1.60
2017-12-10T06:40:31.301Z,1.60
2017-12-10T06:43:14.686Z,1.60
2017-12-10T06:45:57.680Z,1.60
2017-12-10T06:48:37.948Z,1.60
2017-12-10T06:51:19.600Z,1.50
2017-12-10T06:53:57.109Z,1.60
2017-12-10T06:56:34.425Z,1.50
2017-12-10T06:59:09.174Z,1.50
2017-12-10T07:01:48.596Z,1.40
2017-12-10T07:04:25.706Z,1.40
2017-12-10T07:07:05.651Z,1.40
2017-12-10T07:09:44.606Z,1.50
2017-12-10T07:12:23.212Z,1.50
2017-12-10T07:14:57.513Z,1.50
2017-12-10T07:17:32.030Z,1.60
2017-12-10T07:20:07.366Z,1.50
2017-12-10T07:22:48.194Z,1.50
2017-12-10T07:25:25.769Z,1.60
2017-12-10T07:28:04.923Z,1.50
2017-12-10T07:30:45.461Z,1.50
2017-12-10T07:33:21.797Z,1.50
2017-12-10T07:35:57.594Z,1.60
2017-12-10T07:38:31.868Z,1.60
2017-12-10T07:41:13.982Z,1.70
2017-12-10T07:43:47.682Z,1.80
2017-12-10T07:46:26.733Z,1.80
2017-12-10T07:49:08.092Z,1.90
2017-12-10T07:51:50.871Z,1.90
2017-12-10T07:54:25.019Z,1.90
2017-12-10T07:57:05.220Z,1.90
2017-12-10T07:59:45.944Z,1.90
2017-12-10T08:02:20.456Z,1.90
2017-12-10T08:04:54.390Z,1.90
2017-12-10T08:07:33.882Z,1.90
2017-12-10T08:10:12.721Z,2.00
2017-12-10T08:12:56.444Z,2.00
2017-12-10T08:15:29.625Z,2.10
2017-12-10T08:18:09.438Z,2.10
2017-12-10T08:20:49.791Z,2.10
2017-12-10T08:23:24.991Z,2.20
2017-12-10T08:25:59.184Z,2.20
2017-12-10T08:28:41.227Z,2.20
2017-12-10T08:31:20.124Z,2.30
2017-12-10T08:34:00.781Z,2.20
2017-12-10T08:36:40.891Z,2.20
2017-12-10T08:39:22.321Z,2.20
2017-12-10T08:42:04.229Z,2.20
2017-12-10T08:44:47.460Z,2.20
2017-12-10T08:47:25.853Z,2.20
2017-12-10T08:50:05.276Z,2.20
2017-12-10T08:52:46.530Z,2.10
2017-12-10T08:55:26.672Z,2.20
2017-12-10T08:58:07.280Z,2.10
2017-12-10T09:00:47.713Z,2.10
2017-12-10T09:03:29.783Z,2.10
2017-12-10T09:06:10.166Z,2.10
2017-12-10T09:08:44.889Z,2.10
2017-12-10T09:11:24.135Z,2.20
2017-12-10T09:14:01.981Z,2.20
2017-12-10T09:16:37.891Z,2.20
2017-12-10T09:19:12.420Z,2.20
2017-12-10T09:21:52.699Z,2.20
2017-12-10T09:24:31.192Z,2.30
2017-12-10T09:27:12.008Z,2.20
2017-12-10T09:29:52.784Z,2.30
2017-12-10T09:32:28.752Z,2.30
2017-12-10T09:35:09.188Z,2.30
2017-12-10T09:37:51.821Z,2.40
2017-12-10T09:40:31.475Z,2.40
2017-12-10T09:43:12.384Z,2.40
2017-12-10T09:45:46.105Z,2.40
2017-12-10T09:48:25.806Z,2.20
2017-12-10T09:51:07.661Z,2.00
2017-12-10T09:53:52.447Z,2.00
2017-12-10T09:56:31.914Z,1.70
2017-12-10T09:59:12.716Z,1.60
2017-12-10T10:01:50.960Z,1.50
2017-12-10T10:04:31.388Z,1.20
2017-12-10T10:07:10.105Z,1.20
2017-12-10T10:09:51.143Z,1.10
2017-12-10T10:12:34.176Z,1.00
2017-12-10T10:15:17.895Z,0.90
2017-12-10T10:18:02.522Z,0.80
2017-12-10T10:20:44.765Z,0.80
2017-12-10T10:23:27.952Z,0.70
2017-12-10T10:26:07.434Z,0.60
2017-12-10T10:28:46.254Z,0.60
2017-12-10T10:31:29.529Z,0.60
2017-12-10T10:34:14.184Z,0.60
2017-12-10T10:36:54.062Z,0.60
2017-12-10T10:39:33.767Z,0.50
2017-12-10T10:42:12.099Z,0.50
2017-12-10T10:44:51.730Z,0.40
2017-12-10T10:47:31.286Z,0.40
2017-12-10T10:50:06.386Z,0.30
2017-12-10T10:52:40.474Z,0.30
2017-12-10T10:55:14.306Z,0.40
2017-12-10T10:57:54.651Z,0.30
2017-12-10T11:00:28.996Z,0.40
2017-12-10T11:03:10.033Z,0.30
2017-12-10T11:05:52.530Z,0.40
2017-12-10T11:08:38.376Z,0.40
2017-12-10T11:11:11.588Z,0.30
2017-12-10T11:13:53.985Z,0.40
2017-12-10T11:16:34.374Z,0.30
2017-12-10T11:19:13.822Z,0.30
2017-12-10T11:21:47.259Z,0.20
2017-12-10T11:24:31.148Z,0.20
2017-12-10T11:27:11.079Z,0.20
2017-12-10T11:29:53.177Z,0.20
2017-12-10T11:32:33.090Z,0.10
2017-12-10T11:35:12.488Z,0.10
2017-12-10T11:37:52.724Z,0.10
2017-12-10T11:40:32.844Z,0.10
2017-12-10T11:43:13.648Z,0.10
2017-12-10T11:45:52.900Z,0.10
2017-12-10T11:48:35.323Z,0.10
2017-12-10T11:51:14.859Z,0.10
2017-12-10T11:53:56.091Z,0.10
2017-12-10T11:56:37.409Z,0.10
2017-12-10T11:59:19.053Z,0.20
2017-12-10T12:01:56.866Z,0.20
2017-12-10T12:04:31.673Z,0.20
2017-12-10T12:07:13.409Z,0.20
2017-12-10T12:09:52.065Z,0.20
2017-12-10T12:12:31.298Z,0.20
2017-12-10T12:15:06.512Z,0.20
2017-12-10T12:17:48.364Z,0.10
2017-12-10T12:20:28.640Z,0.20
2017-12-10T12:23:08.510Z,0.30
2017-12-10T12:25:42.876Z,0.30
2017-12-10T12:28:17.930Z,0.20
2017-12-10T12:30:54.382Z,0.30
2017-12-10T12:33:35.199Z,0.40
2017-12-10T12:36:09.305Z,0.40
2017-12-10T12:38:46.063Z,0.40
2017-12-10T12:41:26.781Z,0.40
2017-12-10T12:44:01.482Z,0.40
2017-12-10T12:46:37.390Z,0.40
2017-12-10T12:49:11.866Z,0.40
2017-12-10T12:51:51.786Z,0.40
2017-12-10T12:54:28.171Z,0.40
2017-12-10T12:57:03.364Z,0.40
2017-12-10T12:59:46.040Z,0.40
2017-12-10T13:02:28.114Z,0.50
2017-12-10T13:05:12.176Z,0.60
2017-12-10T13:07:52.358Z,0.60
2017-12-10T13:10:31.252Z,0.60
2017-12-10T13:13:11.049Z,0.50
2017-12-10T13:15:51.518Z,0.50
2017-12-10T13:18:28.857Z,0.50
2017-12-10T13:21:12.736Z,0.50
2017-12-10T13:23:53.042Z,0.50
2017-12-10T13:26:32.882Z,0.50
2017-12-10T13:29:09.573Z,0.50
2017-12-10T13:31:53.522Z,0.50
2017-12-10T13:34:33.564Z,0.60
2017-12-10T13:37:14.736Z,0.60
2017-12-10T13:39:56.891Z,0.60
2017-12-10T13:42:36.196Z,0.60
2017-12-10T13:45:10.514Z,0.70
2017-12-10T13:47:45.080Z,0.70
2017-12-10T13:50:19.655Z,0.80
2017-12-10T13:53:01.846Z,0.70
2017-12-10T13:55:40.520Z,0.80
2017-12-10T13:58:17.728Z,0.70
2017-12-10T14:00:58.185Z,0.80
2017-12-10T14:03:37.701Z,0.80
2017-12-10T14:06:16.669Z,0.90
2017-12-10T14:08:56.282Z,0.90
2017-12-10T14:11:35.299Z,1.00
2017-12-10T14:14:14.723Z,1.00
2017-12-10T14:16:50.076Z,1.10
2017-12-10T14:19:26.268Z,1.30
2017-12-10T14:22:00.137Z,1.30
2017-12-10T14:24:42.027Z,1.40
2017-12-10T14:27:24.077Z,1.50
2017-12-10T14:30:04.423Z,1.50
2017-12-10T14:32:43.864Z,1.70
2017-12-10T14:35:23.170Z,1.80
2017-12-10T14:37:56.907Z,1.90
2017-12-10T14:40:36.015Z,1.90
2017-12-10T14:43:21.255Z,1.90
2017-12-10T14:45:56.375Z,2.00
2017-12-10T14:48:36.946Z,2.40
2017-12-10T14:51:18.244Z,2.60
2017-12-10T14:53:58.973Z,3.00
2017-12-10T14:56:37.326Z,3.20
2017-12-10T14:59:17.708Z,3.50
2017-12-10T15:01:56.627Z,3.50
2017-12-10T15:04:35.283Z,3.60
2017-12-10T15:07:13.731Z,3.60
2017-12-10T15:09:47.775Z,3.80
2017-12-10T15:12:19.722Z,3.80
2017-12-10T15:15:00.142Z,3.90
2017-12-10T15:17:39.527Z,4.00
2017-12-10T15:20:20.288Z,4.20
2017-12-10T15:23:03.728Z,4.20
2017-12-10T15:25:44.963Z,4.20
2017-12-10T15:28:25.236Z,4.40
2017-12-10T15:31:04.026Z,4.40
2017-12-10T15:33:49.466Z,4.40
2017-12-10T15:36:26.413Z,4.50
2017-12-10T15:39:06.461Z,4.50
2017-12-10T15:41:47.905Z,4.60
2017-12-10T15:44:27.418Z,4.70
2017-12-10T15:47:09.786Z,4.80
2017-12-10T15:49:49.307Z,4.80
2017-12-10T15:52:23.494Z,4.90
2017-12-10T15:54:58.167Z,5.10
2017-12-10T15:57:38.461Z,5.00
2017-12-10T16:00:18.505Z,5.40
2017-12-10T16:02:53.851Z,5.30
2017-12-10T16:05:33.009Z,5.50
2017-12-10T16:08:11.430Z,5.50
2017-12-10T16:10:47.027Z,5.70
2017-12-10T16:13:20.376Z,5.70
2017-12-10T16:15:58.652Z,5.70
2017-12-10T16:18:42.198Z,5.80
2017-12-10T16:21:25.358Z,5.80
2017-12-10T16:23:59.080Z,5.80
2017-12-10T16:26:37.435Z,5.80
2017-12-10T16:29:18.705Z,5.90
2017-12-10T16:32:00.107Z,5.90
2017-12-10T16:34:34.510Z,6.10
2017-12-10T16:37:18.112Z,6.20
2017-12-10T16:39:58.358Z,6.20
2017-12-10T16:42:36.102Z,6.30
2017-12-10T16:45:15.712Z,6.30
2017-12-10T16:47:54.764Z,6.30
2017-12-10T16:50:29.893Z,6.50
2017-12-10T16:53:04.664Z,6.50
2017-12-10T16:55:42.187Z,6.40
2017-12-10T16:58:17.140Z,6.50
2017-12-10T17:00:52.185Z,6.50
2017-12-10T17:03:30.380Z,6.60
2017-12-10T17:06:05.881Z,6.80
2017-12-10T17:08:40.163Z,6.80
2017-12-10T17:11:15.602Z,6.80
2017-12-10T17:13:50.755Z,6.80
2017-12-10T17:16:24.706Z,6.80
2017-12-10T17:18:58.572Z,6.90
2017-12-10T17:21:39.000Z,7.00
2017-12-10T17:24:18.946Z,6.90
2017-12-10T17:26:53.974Z,7.00
2017-12-10T17:29:28.110Z,7.00
2017-12-10T17:32:01.693Z,7.00
2017-12-10T17:34:41.738Z,7.00
2017-12-10T17:37:20.174Z,7.20
2017-12-10T17:39:54.255Z,7.10
2017-12-10T17:42:35.031Z,7.20
2017-12-10T17:45:09.288Z,7.20
2017-12-10T17:47:43.803Z,7.20
2017-12-10T17:50:19.328Z,7.20
2017-12-10T17:52:53.628Z,7.10
2017-12-10T17:55:33.263Z,7.10
2017-12-10T17:58:08.636Z,7.20
2017-12-10T18:00:43.262Z,7.20
2017-12-10T18:03:17.112Z,7.20
2017-12-10T18:05:52.983Z,7.20
2017-12-10T18:08:31.906Z,7.20
2017-12-10T18:11:10.717Z,7.20
2017-12-10T18:13:54.404Z,7.20
2017-12-10T18:16:37.596Z,7.20
2017-12-10T18:19:20.052Z,7.20
2017-12-10T18:21:54.529Z,7.10
2017-12-10T18:24:31.165Z,7.20
2017-12-10T18:27:11.025Z,7.20
2017-12-10T18:29:51.414Z,7.20
2017-12-10T18:32:30.976Z,7.20
2017-12-10T18:35:09.987Z,7.30
2017-12-10T18:37:49.846Z,7.30
2017-12-10T18:40:30.116Z,7.30
2017-12-10T18:43:09.564Z,7.30
2017-12-10T18:45:54.628Z,7.30
2017-12-10T18:48:29.502Z,7.30
2017-12-10T18:51:07.251Z,7.40
2017-12-10T18:53:46.890Z,7.50
2017-12-10T18:56:25.720Z,7.50
2017-12-10T18:58:59.131Z,7.40
2017-12-10T19:01:34.355Z,7.40
2017-12-10T19:04:13.340Z,7.40
2017-12-10T19:06:51.093Z,7.30
2017-12-10T19:09:34.226Z,7.30
2017-12-10T19:12:13.141Z,7.20
2017-12-10T19:14:53.239Z,7.20
2017-12-10T19:17:32.836Z,7.10
2017-12-10T19:20:13.625Z,6.90
2017-12-10T19:22:54.108Z,6.70
2017-12-10T19:25:35.480Z,6.70
2017-12-10T19:28:16.204Z,6.60
2017-12-10T19:30:50.042Z,6.60
2017-12-10T19:33:30.358Z,6.50
2017-12-10T19:36:10.414Z,6.40
2017-12-10T19:38:44.104Z,6.50
2017-12-10T19:41:21.291Z,6.50
2017-12-10T19:44:03.345Z,6.60
2017-12-10T19:46:44.872Z,6.60
2017-12-10T19:49:18.673Z,6.60
2017-12-10T19:51:59.435Z,6.60
2017-12-10T19:54:41.099Z,6.60
2017-12-10T19:57:22.496Z,6.60
2017-12-10T20:00:02.096Z,6.70
2017-12-10T20:02:42.681Z,6.70
2017-12-10T20:05:17.779Z,6.80
2017-12-10T20:07:57.778Z,6.70
2017-12-10T20:10:37.819Z,6.70
2017-12-10T20:13:18.473Z,6.10
2017-12-10T20:15:57.147Z,5.80
2017-12-10T20:18:36.572Z,5.80
2017-12-10T20:21:16.022Z,5.70
2017-12-10T20:23:50.316Z,5.60
2017-12-10T20:26:24.404Z,5.50
2017-12-10T20:28:58.938Z,5.50
2017-12-10T20:31:38.293Z,5.50
2017-12-10T20:34:18.370Z,5.50
2017-12-10T20:36:52.406Z,5.50
2017-12-10T20:39:28.084Z,5.50
2017-12-10T20:42:08.532Z,5.40
2017-12-10T20:44:48.527Z,5.30
2017-12-10T20:47:27.868Z,5.20
2017-12-10T20:50:09.208Z,5.20
2017-12-10T20:52:47.801Z,5.00
2017-12-10T20:55:21.747Z,5.00
2017-12-10T20:58:01.266Z,4.90
2017-12-10T21:00:43.373Z,4.90
2017-12-10T21:03:20.781Z,4.90
2017-12-10T21:06:02.770Z,4.80
2017-12-10T21:08:36.662Z,4.70
2017-12-10T21:11:11.006Z,4.70
2017-12-10T21:13:45.851Z,4.70
2017-12-10T21:16:27.499Z,4.60
2017-12-10T21:19:02.775Z,4.50
2017-12-10T21:21:38.871Z,4.50
2017-12-10T21:24:16.674Z,4.50
2017-12-10T21:26:56.985Z,4.50
2017-12-10T21:29:39.488Z,4.40
2017-12-10T21:32:18.559Z,4.40
2017-12-10T21:34:52.075Z,4.30
2017-12-10T21:37:31.345Z,4.20
2017-12-10T21:40:09.913Z,4.20
2017-12-10T21:42:44.435Z,4.20
2017-12-10T21:45:18.927Z,4.20
2017-12-10T21:47:54.448Z,4.10
2017-12-10T21:50:32.471Z,4.10
2017-12-10T21:53:11.090Z,4.10
2017-12-10T21:55:49.474Z,4.00
2017-12-10T21:58:28.698Z,3.90
2017-12-10T22:01:10.333Z,3.90
2017-12-10T22:03:55.211Z,3.90
2017-12-10T22:06:28.760Z,3.80
2017-12-10T22:09:10.004Z,3.80
2017-12-10T22:11:51.061Z,3.80
2017-12-10T22:14:25.310Z,3.80
2017-12-10T22:16:59.850Z,3.80
2017-12-10T22:19:39.834Z,3.80
2017-12-10T22:22:18.063Z,3.80
2017-12-10T22:24:56.984Z,3.80
2017-12-10T22:27:37.862Z,3.80
2017-12-10T22:30:21.969Z,3.90
2017-12-10T22:33:06.435Z,3.90
2017-12-10T22:35:39.426Z,3.90
2017-12-10T22:38:22.838Z,3.90
2017-12-10T22:41:06.071Z,4.00
2017-12-10T22:43:49.840Z,4.00
2017-12-10T22:46:23.456Z,3.90
2017-12-10T22:49:01.662Z,4.00
2017-12-10T22:51:40.844Z,4.00
2017-12-10T22:54:18.527Z,4.00
2017-12-10T22:56:59.771Z,4.00
2017-12-10T22:59:39.854Z,4.00
2017-12-10T23:02:20.878Z,4.10
2017-12-10T23:04:59.734Z,4.00
2017-12-10T23:07:39.731Z,4.10
2017-12-10T23:10:14.396Z,4.00
2017-12-10T23:13:01.281Z,4.00
2017-12-10T23:15:40.266Z,4.00
2017-12-10T23:18:23.207Z,4.00
2017-12-10T23:21:07.228Z,4.00
2017-12-10T23:23:46.290Z,4.00
2017-12-10T23:26:24.167Z,4.00
2017-12-10T23:29:06.224Z,4.00
2017-12-10T23:31:45.513Z,4.00
2017-12-10T23:34:29.086Z,4.00
2017-12-10T23:37:11.744Z,4.00
2017-12-10T23:39:49.840Z,4.10
2017-12-10T23:42:30.224Z,4.00
2017-12-10T23:45:09.310Z,4.00
2017-12-10T23:47:50.116Z,4.00
2017-12-10T23:50:20.579Z,4.00
2017-12-10T23:52:59.852Z,4.00
2017-12-10T23:55:39.958Z,4.00
2017-12-10T23:58:18.977Z,4.00
